Time;durP1;ratioP1;P1;durP2;ratioP2;P2;SDS_P1;SDS_P2;PMS_P1;PMS_P2;Temp;Humidity;BMP_temperature;BMP_pressure;BME280_temperature;BME280_humidity;BME280_pressure;Samples;Min_cycle;Max_cycle;Signal;HPM_P1;HPM_P2
2022/04/22 00:01:28;;;;;;;8.25;3.22;;;;;;;11.86;41.80;100567.09;5013514;28;20111;-74
2022/04/22 00:03:55;;;;;;;8.35;3.30;;;;;;;12.17;41.31;100558.22;5012436;28;20052;-74
2022/04/22 00:06:22;;;;;;;10.00;3.15;;;;;;;12.55;40.47;100555.69;5012824;28;20066;-74
2022/04/22 00:08:48;;;;;;;10.77;3.15;;;;;;;12.87;39.95;100554.69;5013298;28;20401;-74
2022/04/22 00:11:30;;;;;;;16.17;4.43;;;;;;;13.05;39.55;100554.38;5013467;28;20465;-73
2022/04/22 00:14:01;;;;;;;7.90;3.22;;;;;;;12.54;40.45;100562.09;5012105;28;20046;-74
2022/04/22 00:16:30;;;;;;;10.27;3.00;;;;;;;12.05;41.46;100570.41;4999390;28;20104;-74
2022/04/22 00:18:58;;;;;;;8.93;3.25;;;;;;;11.98;41.53;100564.88;5013167;28;20042;-74
2022/04/22 00:21:26;;;;;;;10.57;3.42;;;;;;;12.23;40.96;100562.91;5007263;28;20084;-74
2022/04/22 00:23:53;;;;;;;14.98;3.60;;;;;;;12.25;40.86;100568.13;5005095;28;21627;-74
2022/04/22 00:26:20;;;;;;;10.10;3.60;;;;;;;12.16;40.77;100556.56;4993466;28;20125;-74
2022/04/22 00:28:46;;;;;;;15.60;3.28;;;;;;;12.33;40.36;100552.78;4992949;28;20133;-74
2022/04/22 00:31:13;;;;;;;13.05;3.85;;;;;;;12.17;40.93;100553.72;4997049;28;20078;-74
2022/04/22 00:33:41;;;;;;;10.68;3.78;;;;;;;12.12;40.66;100542.63;5016157;28;20053;-72
2022/04/22 00:36:08;;;;;;;9.43;3.38;;;;;;;12.54;40.22;100541.41;5029423;28;20548;-74
2022/04/22 00:38:34;;;;;;;9.63;4.15;;;;;;;11.81;41.61;100547.94;5029569;28;20051;-73
2022/04/22 00:41:01;;;;;;;12.77;3.75;;;;;;;12.19;40.73;100540.09;5032234;28;20124;-73
2022/04/22 00:43:28;;;;;;;10.63;3.60;;;;;;;12.39;40.19;100535.94;4997466;28;20160;-74
2022/04/22 00:45:55;;;;;;;8.25;3.85;;;;;;;12.23;40.61;100530.63;5005529;28;20077;-74
2022/04/22 00:48:22;;;;;;;8.38;3.60;;;;;;;11.26;42.63;100543.31;5012873;28;20144;-74
2022/04/22 00:50:49;;;;;;;9.32;4.00;;;;;;;11.41;42.15;100536.25;5011569;28;20136;-73
2022/04/22 00:53:17;;;;;;;14.25;4.50;;;;;;;11.35;42.48;100539.63;5006045;28;20053;-73
2022/04/22 00:55:45;;;;;;;12.25;4.50;;;;;;;11.67;41.94;100532.53;4993418;28;20073;-73
2022/04/22 00:58:12;;;;;;;12.68;5.00;;;;;;;11.61;41.98;100520.59;4992747;28;20074;-73
2022/04/22 01:00:39;;;;;;;13.98;3.85;;;;;;;12.20;40.77;100528.31;4996619;28;20553;-73
2022/04/22 01:03:06;;;;;;;11.57;4.22;;;;;;;12.16;40.69;100525.13;4995430;28;20058;-73
2022/04/22 01:12:06;;;;;;;14.75;4.85;;;;;;;12.10;40.99;100522.28;4993714;28;20133;-73
2022/04/22 01:14:33;;;;;;;9.57;4.15;;;;;;;11.33;42.64;100528.19;4991506;28;20046;-73
2022/04/22 01:17:01;;;;;;;15.48;4.10;;;;;;;11.24;42.86;100529.25;4992149;28;20046;-73
2022/04/22 01:19:28;;;;;;;13.35;5.13;;;;;;;10.95;43.57;100532.41;4995162;28;20065;-73
2022/04/22 01:21:54;;;;;;;16.95;4.88;;;;;;;10.93;43.61;100527.22;4993145;28;20133;-74
2022/04/22 01:24:21;;;;;;;15.02;5.07;;;;;;;10.61;44.36;100528.00;4994331;28;20077;-73
2022/04/22 01:26:49;;;;;;;15.45;4.57;;;;;;;10.73;43.96;100521.34;4995253;28;20130;-73
2022/04/22 01:29:16;;;;;;;16.55;5.72;;;;;;;10.34;44.82;100521.06;4991934;28;20471;-74
2022/04/22 01:31:45;;;;;;;11.07;5.40;;;;;;;10.60;44.39;100515.63;4991541;28;20141;-74
2022/04/22 01:34:12;;;;;;;17.50;5.63;;;;;;;10.61;44.53;100521.81;4991138;28;20046;-73
2022/04/22 01:36:38;;;;;;;13.80;5.30;;;;;;;10.93;43.86;100521.88;4994762;28;20054;-74
2022/04/22 01:39:05;;;;;;;22.35;6.65;;;;;;;10.90;43.88;100519.50;4991238;28;20042;-74
2022/04/22 01:41:31;;;;;;;13.88;5.05;;;;;;;11.25;43.03;100520.16;4990963;28;20149;-74
2022/04/22 01:43:58;;;;;;;16.90;5.95;;;;;;;10.28;45.44;100511.84;4995152;28;20073;-73
2022/04/22 01:46:24;;;;;;;17.35;6.07;;;;;;;10.00;46.22;100513.09;4990916;28;20069;-73
2022/04/22 01:48:51;;;;;;;14.55;6.25;;;;;;;10.20;45.77;100508.28;4991824;28;20042;-73
2022/04/22 01:51:17;;;;;;;21.83;6.07;;;;;;;10.28;45.53;100502.94;4998234;28;20132;-73
2022/04/22 01:53:44;;;;;;;19.85;6.40;;;;;;;10.62;44.75;100502.06;5000392;28;20080;-73
2022/04/22 01:56:11;;;;;;;17.38;6.63;;;;;;;10.69;44.43;100501.22;5001464;28;20065;-73
2022/04/22 01:58:37;;;;;;;15.30;6.15;;;;;;;10.91;43.80;100497.03;5010614;28;20042;-74
2022/04/22 02:01:04;;;;;;;21.27;6.63;;;;;;;10.93;43.92;100491.50;4995626;28;20057;-74
2022/04/22 02:03:31;;;;;;;18.90;6.25;;;;;;;11.13;43.45;100490.13;4991077;28;20073;-74
2022/04/22 02:05:58;;;;;;;19.60;6.60;;;;;;;11.21;43.33;100486.59;4990969;28;20482;-74
2022/04/22 02:08:24;;;;;;;18.42;6.28;;;;;;;11.03;43.56;100480.56;4992093;28;20077;-74
2022/04/22 02:10:51;;;;;;;17.00;7.15;;;;;;;11.07;43.67;100490.00;5010606;28;20124;-73
2022/04/22 02:13:17;;;;;;;17.33;6.40;;;;;;;10.68;44.40;100496.00;5011684;28;20077;-73
2022/04/22 02:15:44;;;;;;;18.63;6.93;;;;;;;10.91;44.32;100485.44;5010965;28;20048;-73
2022/04/22 02:18:10;;;;;;;20.77;6.72;;;;;;;11.28;43.08;100482.22;5010645;28;20065;-73
2022/04/22 02:20:37;;;;;;;17.17;6.85;;;;;;;11.14;43.56;100481.06;5010666;28;20141;-73
2022/04/22 02:23:03;;;;;;;16.08;6.70;;;;;;;10.74;44.23;100471.19;5010696;28;20077;-73
2022/04/22 02:25:30;;;;;;;23.58;7.30;;;;;;;11.17;43.55;100479.88;5008726;28;20073;-73
2022/04/22 02:30:42;;;;;;;20.70;7.35;;;;;;;10.60;44.58;100483.41;5010430;28;20133;-73
2022/04/22 02:33:08;;;;;;;17.10;6.68;;;;;;;9.77;46.70;100480.66;5010061;28;20391;-73
2022/04/22 02:35:34;;;;;;;15.02;6.75;;;;;;;10.25;45.74;100476.47;4997546;28;20133;-73
2022/04/22 02:38:01;;;;;;;14.85;6.65;;;;;;;10.17;45.64;100471.94;5008946;28;20070;-73
2022/04/22 02:45:58;;;;;;;15.45;6.80;;;;;;;10.68;44.66;100466.50;5005606;28;20116;-73
2022/04/22 02:48:24;;;;;;;17.33;8.00;;;;;;;10.93;44.06;100457.44;4987815;28;20133;-73
2022/04/22 02:50:51;;;;;;;15.95;7.18;;;;;;;10.97;44.16;100453.41;5007140;28;20061;-73
2022/04/22 02:53:17;;;;;;;16.80;6.90;;;;;;;10.79;44.34;100455.44;5009973;28;20457;-73
2022/04/22 02:55:48;;;;;;;23.42;7.05;;;;;;;10.95;44.04;100451.91;5010438;28;20474;-73
2022/04/22 02:58:14;;;;;;;17.58;7.70;;;;;;;10.71;44.75;100452.75;5010848;28;20046;-73
2022/04/22 03:00:41;;;;;;;21.05;6.25;;;;;;;10.61;44.94;100454.75;5011117;28;20069;-73
2022/04/22 03:03:08;;;;;;;16.13;6.47;;;;;;;10.20;45.77;100455.53;5009829;28;20130;-73
2022/04/22 03:05:34;;;;;;;16.10;7.25;;;;;;;10.26;45.66;100448.66;5011068;28;20069;-73
2022/04/22 03:08:01;;;;;;;16.40;7.55;;;;;;;10.36;45.53;100457.38;5010543;28;20042;-73
2022/04/22 03:10:28;;;;;;;20.60;7.13;;;;;;;10.20;45.74;100443.94;5011777;28;20067;-72
2022/04/22 03:12:54;;;;;;;17.38;7.38;;;;;;;10.67;44.69;100440.69;5014235;28;20133;-73
2022/04/22 03:15:21;;;;;;;15.75;7.10;;;;;;;10.38;45.02;100439.28;5015367;28;20470;-73
2022/04/22 03:17:49;;;;;;;16.77;7.47;;;;;;;10.45;45.03;100442.16;5013146;28;20129;-73
2022/04/22 03:20:15;;;;;;;17.80;7.78;;;;;;;10.68;44.87;100445.03;5013804;28;20205;-73
2022/04/22 03:22:42;;;;;;;18.90;6.90;;;;;;;11.11;43.64;100429.56;5013359;28;20132;-73
2022/04/22 03:25:08;;;;;;;25.77;8.38;;;;;;;10.75;44.44;100429.94;5017816;28;20041;-73
2022/04/22 03:27:35;;;;;;;20.00;8.45;;;;;;;10.50;44.94;100437.16;5015725;28;20081;-72
2022/04/22 03:30:03;;;;;;;18.17;7.10;;;;;;;10.18;45.58;100429.88;5013920;28;20091;-72
2022/04/22 03:32:30;;;;;;;21.38;7.18;;;;;;;10.86;44.12;100437.66;5014145;28;20050;-72
2022/04/22 03:34:56;;;;;;;20.13;8.05;;;;;;;10.30;45.55;100431.22;5013709;28;20462;-73
2022/04/22 03:37:23;;;;;;;15.18;7.63;;;;;;;10.14;45.91;100433.91;5016886;28;20555;-73
2022/04/22 03:39:49;;;;;;;17.60;7.40;;;;;;;10.69;44.80;100427.94;5017454;28;20486;-73
2022/04/22 03:42:16;;;;;;;21.13;7.45;;;;;;;10.70;44.67;100424.25;5016143;28;20512;-72
2022/04/22 03:44:42;;;;;;;21.23;7.57;;;;;;;10.59;44.71;100433.47;5016879;28;20100;-73
2022/04/22 03:47:08;;;;;;;21.33;7.63;;;;;;;10.85;44.23;100438.66;5015441;28;20050;-73
2022/04/22 03:49:35;;;;;;;20.90;6.63;;;;;;;10.57;44.68;100432.78;5015704;28;20069;-73
2022/04/22 03:52:02;;;;;;;17.77;7.43;;;;;;;10.85;44.27;100422.53;5012468;28;20045;-73
2022/04/22 03:54:28;;;;;;;20.85;8.48;;;;;;;11.04;44.17;100423.22;5013432;28;20049;-73
2022/04/22 03:59:40;;;;;;;18.58;7.65;;;;;;;10.80;43.96;100421.41;5013298;28;20205;-73
2022/04/22 04:02:07;;;;;;;23.00;7.93;;;;;;;11.20;43.46;100421.31;5012866;28;20069;-73
2022/04/22 04:04:34;;;;;;;18.80;7.60;;;;;;;11.33;43.03;100417.25;5012628;28;20490;-73
2022/04/22 04:07:01;;;;;;;19.55;7.22;;;;;;;11.13;43.39;100417.63;5012704;28;20156;-72
2022/04/22 04:17:43;;;;;;;18.02;7.20;;;;;;;10.19;45.60;100427.00;5012973;28;20046;-73
2022/04/22 04:25:40;;;;;;;22.20;8.25;;;;;;;10.46;45.15;100425.88;4995545;28;20125;-73
2022/04/22 04:28:10;;;;;;;27.48;8.25;;;;;;;10.13;45.88;100419.66;5004569;28;20096;-73
2022/04/22 04:30:41;;;;;;;22.92;8.65;;;;;;;10.66;44.71;100420.22;5000436;28;20054;-73
2022/04/22 04:33:08;;;;;;;21.08;7.40;;;;;;;10.49;44.95;100425.56;4996450;28;20450;-73
2022/04/22 04:35:35;;;;;;;21.70;8.55;;;;;;;10.78;44.51;100426.91;4992919;28;20081;-73
2022/04/22 04:38:02;;;;;;;25.65;8.20;;;;;;;10.90;43.96;100425.56;4993006;28;20462;-73
2022/04/22 04:40:30;;;;;;;20.15;7.88;;;;;;;10.80;44.36;100434.81;4993134;28;20126;-73
2022/04/22 04:42:57;;;;;;;19.02;8.60;;;;;;;10.53;44.84;100433.28;4993117;28;20435;-73
2022/04/22 04:45:23;;;;;;;17.15;8.38;;;;;;;10.50;45.07;100431.78;4993863;28;20061;-73
2022/04/22 04:47:50;;;;;;;23.42;8.48;;;;;;;10.93;43.98;100435.13;4995218;28;20038;-73
2022/04/22 04:50:16;;;;;;;31.27;8.65;;;;;;;9.68;46.66;100454.81;4992856;28;20050;-74
2022/04/22 04:52:43;;;;;;;21.48;8.93;;;;;;;10.70;44.61;100441.19;4992860;28;20133;-74
2022/04/22 04:55:15;;;;;;;21.55;8.38;;;;;;;10.58;44.88;100436.31;5005941;28;20068;-73
2022/04/22 04:57:45;;;;;;;20.55;7.65;;;;;;;11.06;43.76;100443.47;5012263;28;20156;-73
2022/04/22 05:00:16;;;;;;;23.02;9.02;;;;;;;11.32;43.04;100437.06;5010080;28;20414;-73
2022/04/22 05:02:44;;;;;;;23.15;8.15;;;;;;;11.33;43.03;100436.88;5012593;28;20494;-73
2022/04/22 05:05:12;;;;;;;23.85;8.40;;;;;;;11.12;43.37;100441.97;5010309;28;20129;-73
2022/04/22 05:07:55;;;;;;;19.38;7.53;;;;;;;11.25;43.48;100426.19;5012357;28;20069;-73
2022/04/22 05:10:21;;;;;;;21.70;8.38;;;;;;;11.27;43.22;100426.81;5012828;28;20045;-73
2022/04/22 05:12:49;;;;;;;25.85;9.45;;;;;;;11.31;43.02;100428.19;5011530;28;20105;-74
2022/04/22 05:15:17;;;;;;;19.25;7.80;;;;;;;10.97;43.75;100426.56;5005078;28;20514;-73
2022/04/22 05:17:45;;;;;;;18.40;8.02;;;;;;;11.13;43.47;100431.06;5023557;28;20398;-73
2022/04/22 05:20:14;;;;;;;16.98;8.63;;;;;;;10.76;44.07;100428.13;5009974;28;20471;-74
2022/04/22 05:22:41;;;;;;;19.25;7.88;;;;;;;10.89;43.83;100434.59;5060120;22;20501;-74
2022/04/22 05:25:10;;;;;;;20.30;8.25;;;;;;;10.63;44.54;100423.25;5046101;28;20091;-74
2022/04/22 05:27:37;;;;;;;25.33;9.25;;;;;;;10.24;45.12;100430.06;5052154;28;20132;-74
2022/04/22 05:32:50;;;;;;;23.02;8.70;;;;;;;10.83;44.39;100432.63;5050892;28;20098;-74
2022/04/22 05:35:19;;;;;;;20.90;7.60;;;;;;;10.68;44.51;100428.94;5051962;28;20053;-74
2022/04/22 05:37:54;;;;;;;20.70;9.00;;;;;;;11.26;43.56;100435.06;5050877;28;20080;-76
2022/04/22 05:40:22;;;;;;;16.23;7.90;;;;;;;11.71;42.48;100423.69;5051498;28;20102;-75
2022/04/22 05:42:50;;;;;;;25.50;8.48;;;;;;;11.15;43.28;100426.38;5051834;28;20045;-76
2022/04/22 05:45:18;;;;;;;22.23;8.43;;;;;;;11.02;43.64;100425.22;5051072;28;20064;-75
2022/04/22 05:47:45;;;;;;;27.33;9.73;;;;;;;11.05;43.72;100428.41;5050752;28;20076;-75
2022/04/22 05:50:16;;;;;;;17.27;8.18;;;;;;;11.33;43.23;100423.47;5051815;28;20052;-75
2022/04/22 05:52:43;;;;;;;17.58;7.95;;;;;;;10.15;45.91;100427.53;5050837;28;20500;-75
2022/04/22 05:55:12;;;;;;;19.23;9.07;;;;;;;11.13;43.87;100420.31;5051762;28;20135;-76
2022/04/22 05:57:39;;;;;;;24.10;8.68;;;;;;;11.03;43.71;100418.81;5050932;28;20110;-76
2022/04/22 06:00:08;;;;;;;22.95;9.07;;;;;;;11.00;43.90;100414.66;5052077;28;20060;-76
2022/04/22 06:02:35;;;;;;;24.17;8.52;;;;;;;10.88;44.20;100414.16;5050849;28;20075;-75
2022/04/22 06:05:01;;;;;;;18.83;8.25;;;;;;;11.10;43.95;100415.31;5051684;28;20124;-75
2022/04/22 06:07:28;;;;;;;25.67;8.23;;;;;;;11.91;42.42;100403.44;5051180;28;20072;-75
2022/04/22 06:12:39;;;;;;;26.77;8.90;;;;;;;12.68;40.78;100404.38;5050210;28;20106;-76
2022/04/22 06:15:06;;;;;;;13.50;7.90;;;;;;;11.69;42.40;100415.81;5050701;28;20050;-76
2022/04/22 06:17:33;;;;;;;30.25;8.20;;;;;;;11.90;42.19;100407.13;5050850;28;20543;-75
2022/04/22 06:19:59;;;;;;;23.98;8.95;;;;;;;11.87;42.26;100407.50;5052349;28;20128;-74
2022/04/22 06:22:27;;;;;;;22.80;8.43;;;;;;;12.76;40.92;100415.09;5051037;28;20463;-75
2022/04/22 06:24:54;;;;;;;19.27;8.27;;;;;;;12.58;40.76;100412.72;5050396;28;20099;-74
2022/04/22 06:27:23;;;;;;;21.23;9.18;;;;;;;11.77;42.78;100409.56;5050717;28;20044;-75
2022/04/22 06:29:51;;;;;;;18.48;8.02;;;;;;;12.35;41.48;100410.88;5050426;28;21721;-74
2022/04/22 06:32:18;;;;;;;21.33;8.95;;;;;;;12.53;41.24;100415.13;5051397;28;20051;-74
2022/04/22 06:34:45;;;;;;;19.15;8.07;;;;;;;12.60;40.96;100411.53;5049364;28;20120;-74
2022/04/22 06:37:11;;;;;;;20.85;8.75;;;;;;;12.18;41.80;100417.41;5050190;28;20095;-74
2022/04/22 06:47:55;;;;;;;26.02;10.02;;;;;;;12.55;41.28;100421.16;5054690;28;20071;-74
2022/04/22 06:50:22;;;;;;;22.13;9.13;;;;;;;12.74;40.64;100426.06;5054726;28;20464;-74
2022/04/22 06:52:49;;;;;;;19.08;8.90;;;;;;;12.23;42.17;100417.69;5055268;28;20098;-74
2022/04/22 06:55:17;;;;;;;25.00;9.80;;;;;;;12.37;41.85;100424.13;5054632;28;20127;-74
2022/04/22 06:57:51;;;;;;;23.38;10.02;;;;;;;11.91;42.75;100424.09;5053766;28;20094;-74
2022/04/22 07:00:18;;;;;;;25.17;9.85;;;;;;;12.69;41.46;100432.97;5054660;28;20140;-75
2022/04/22 07:02:46;;;;;;;22.08;8.60;;;;;;;12.77;40.75;100417.63;5054443;28;20555;-74
2022/04/22 07:05:13;;;;;;;16.67;8.40;;;;;;;12.11;41.40;100429.88;5051986;28;20053;-74
2022/04/22 07:07:40;;;;;;;19.73;9.32;;;;;;;11.37;43.34;100438.22;5054447;28;20045;-74
2022/04/22 07:10:07;;;;;;;17.08;8.43;;;;;;;11.51;43.07;100433.13;5054422;28;20060;-74
2022/04/22 07:12:34;;;;;;;14.27;8.10;;;;;;;11.51;42.85;100433.97;5053697;28;20080;-75
2022/04/22 07:15:03;;;;;;;16.67;7.90;;;;;;;11.77;42.14;100431.06;5054238;28;20557;-74
2022/04/22 07:17:34;;;;;;;16.48;7.72;;;;;;;11.88;41.96;100433.34;5054117;28;20049;-74
2022/04/22 07:20:09;;;;;;;15.32;8.50;;;;;;;11.51;42.55;100428.59;5053578;28;20041;-75
2022/04/22 07:22:45;;;;;;;18.63;7.93;;;;;;;11.97;41.51;100425.22;5051952;28;20064;-74
2022/04/22 07:25:12;;;;;;;17.48;7.82;;;;;;;12.43;40.55;100427.97;5053070;28;20485;-74
2022/04/22 07:27:41;;;;;;;20.85;7.38;;;;;;;12.32;40.54;100435.44;5053946;28;20051;-75
2022/04/22 07:30:09;;;;;;;20.90;8.35;;;;;;;12.86;39.69;100429.16;5053677;28;20041;-74
2022/04/22 07:32:37;;;;;;;20.20;7.93;;;;;;;12.07;41.12;100429.41;5053524;28;20044;-74
2022/04/22 07:35:05;;;;;;;15.52;7.85;;;;;;;12.00;41.45;100441.00;5059462;28;20125;-74
2022/04/22 07:37:34;;;;;;;18.05;7.68;;;;;;;12.26;40.65;100430.78;5054963;28;20119;-74
2022/04/22 07:40:08;;;;;;;14.55;8.40;;;;;;;12.34;40.61;100430.72;5054200;28;20041;-74
2022/04/22 07:48:26;;;;;;;18.40;8.05;;;;;;;12.86;39.25;100427.28;5053679;28;20520;-74
2022/04/22 07:50:54;;;;;;;20.73;8.40;;;;;;;12.54;40.15;100414.09;5053837;28;20076;-75
2022/04/22 07:53:21;;;;;;;18.45;7.75;;;;;;;11.81;41.92;100424.31;5053355;28;20055;-75
2022/04/22 07:55:48;;;;;;;17.42;8.48;;;;;;;12.84;40.04;100432.03;5045792;28;20072;-74
2022/04/22 07:58:17;;;;;;;19.90;8.38;;;;;;;13.17;39.25;100438.94;5044735;28;20059;-74
2022/04/22 08:00:44;;;;;;;17.52;8.68;;;;;;;12.31;41.08;100433.75;5049855;28;20190;-74
2022/04/22 08:03:12;;;;;;;16.00;9.52;;;;;;;12.66;40.52;100436.88;5052549;28;20094;-74
2022/04/22 08:05:39;;;;;;;24.27;9.15;;;;;;;13.01;39.93;100435.41;5053668;28;20077;-74
2022/04/22 08:08:06;;;;;;;15.77;8.70;;;;;;;12.51;40.73;100436.81;5054181;28;20068;-75
2022/04/22 08:10:34;;;;;;;23.77;9.30;;;;;;;12.87;40.72;100433.53;5053878;28;20500;-74
2022/04/22 08:13:00;;;;;;;17.38;9.00;;;;;;;12.26;41.75;100435.31;5052557;28;20124;-74
2022/04/22 08:15:29;;;;;;;21.77;9.95;;;;;;;12.48;41.49;100441.72;5053490;28;20047;-75
2022/04/22 08:17:55;;;;;;;20.70;9.85;;;;;;;12.34;41.87;100430.72;5053113;28;20068;-75
2022/04/22 08:20:22;;;;;;;19.58;10.63;;;;;;;12.41;41.68;100436.22;5052898;28;20147;-74
2022/04/22 08:22:48;;;;;;;22.50;9.45;;;;;;;12.71;41.54;100426.41;5052583;28;20459;-75
2022/04/22 08:25:15;;;;;;;25.70;12.02;;;;;;;12.36;42.64;100423.31;5048810;28;20123;-74
2022/04/22 08:27:45;;;;;;;22.08;11.52;;;;;;;13.19;41.46;100418.06;5063390;28;20068;-75
2022/04/22 08:30:12;;;;;;;19.92;11.68;;;;;;;13.78;40.10;100424.28;5052069;28;20152;-75
2022/04/22 08:32:39;;;;;;;26.63;13.35;;;;;;;13.24;41.53;100421.88;5052694;28;20041;-74
2022/04/22 08:35:06;;;;;;;21.48;13.10;;;;;;;13.79;40.40;100419.72;5053800;28;20048;-75
2022/04/22 08:37:32;;;;;;;21.50;11.43;;;;;;;13.85;40.21;100418.16;5053405;28;20419;-75
2022/04/22 08:39:59;;;;;;;28.30;13.18;;;;;;;13.88;40.28;100428.56;5056436;28;20045;-75
2022/04/22 08:42:26;;;;;;;23.63;12.38;;;;;;;13.48;41.47;100417.22;5056844;28;20053;-74
2022/04/22 08:45:03;;;;;;;22.30;11.98;;;;;;;13.62;41.30;100421.75;5057066;28;20460;-75
2022/04/22 08:50:19;;;;;;;21.05;11.23;;;;;;;13.45;41.71;100417.59;5054630;28;20122;-76
2022/04/22 08:53:02;;;;;;;20.60;11.27;;;;;;;13.24;42.22;100407.56;5050229;28;20063;-77
2022/04/22 08:55:30;;;;;;;21.15;12.10;;;;;;;13.34;42.43;100411.66;5054803;28;20103;-77
2022/04/22 08:57:57;;;;;;;23.95;11.48;;;;;;;13.63;41.47;100415.38;5056557;28;20471;-76
2022/04/22 09:00:27;;;;;;;19.35;11.63;;;;;;;13.95;40.81;100405.19;5053232;28;20053;-77
2022/04/22 09:02:57;;;;;;;20.60;12.15;;;;;;;13.53;41.44;100407.56;5056358;28;20049;-76
2022/04/22 09:05:26;;;;;;;16.17;10.75;;;;;;;12.78;43.52;100405.84;5052078;28;20068;-76
2022/04/22 09:07:53;;;;;;;20.95;11.70;;;;;;;12.99;43.00;100399.75;5047515;28;20041;-77
2022/04/22 09:10:24;;;;;;;24.63;12.18;;;;;;;13.07;43.04;100398.81;5064545;28;20049;-75
2022/04/22 09:12:56;;;;;;;20.95;12.27;;;;;;;13.25;42.54;100399.31;5056625;28;20146;-76
2022/04/22 09:15:25;;;;;;;21.92;12.02;;;;;;;14.20;40.78;100401.09;5053590;28;20045;-76
2022/04/22 09:18:00;;;;;;;20.92;12.45;;;;;;;13.46;42.50;100403.13;5054756;28;20040;-76
2022/04/22 09:20:31;;;;;;;19.02;12.63;;;;;;;13.24;43.04;100394.09;5055407;28;20099;-76
2022/04/22 09:22:57;;;;;;;20.40;12.63;;;;;;;13.25;43.18;100396.63;5056270;28;20554;-76
2022/04/22 09:25:28;;;;;;;19.73;12.25;;;;;;;13.95;41.85;100397.13;5062815;28;20210;-76
2022/04/22 09:28:07;;;;;;;31.55;13.82;;;;;;;13.00;43.90;100392.50;5063287;28;20049;-76
2022/04/22 09:30:44;;;;;;;25.27;13.30;;;;;;;13.72;42.60;100397.22;5065117;28;20099;-77
2022/04/22 09:33:12;;;;;;;20.92;13.35;;;;;;;13.77;42.31;100382.19;5053976;28;20045;-76
2022/04/22 09:44:15;;;;;;;23.00;14.13;;;;;;;13.65;43.52;100401.69;5065714;28;20045;-76
2022/04/22 09:46:44;;;;;;;26.77;14.75;;;;;;;13.19;44.17;100396.53;5061252;28;20526;-76
2022/04/22 09:49:39;;;;;;;27.25;15.05;;;;;;;13.21;44.51;100394.47;5062495;28;20080;-77
2022/04/22 09:52:06;;;;;;;26.15;14.70;;;;;;;13.47;44.18;100394.84;5061882;28;20068;-76
2022/04/22 09:54:33;;;;;;;27.17;14.10;;;;;;;13.75;43.58;100397.66;5062063;28;20440;-76
2022/04/22 09:57:20;;;;;;;21.63;14.63;;;;;;;13.81;43.75;100391.56;5060444;28;20075;-76
2022/04/22 09:59:47;;;;;;;32.85;15.32;;;;;;;14.02;43.17;100396.16;5061735;28;20048;-76
2022/04/22 10:02:29;;;;;;;26.48;15.80;;;;;;;13.62;44.33;100396.66;5061704;28;20113;-76
2022/04/22 10:04:57;;;;;;;28.05;15.90;;;;;;;14.01;43.65;100390.94;5060253;28;20140;-76
2022/04/22 10:07:27;;;;;;;27.85;15.98;;;;;;;14.56;42.68;100383.16;5051728;28;20072;-76
2022/04/22 10:09:55;;;;;;;29.97;17.03;;;;;;;15.17;41.45;100386.97;5050744;28;20044;-76
2022/04/22 10:12:23;;;;;;;26.08;15.90;;;;;;;14.57;42.59;100374.91;5052348;28;20056;-76
2022/04/22 10:14:55;;;;;;;28.80;17.88;;;;;;;14.65;42.21;100385.53;5051462;28;20567;-76
2022/04/22 10:17:22;;;;;;;31.88;18.60;;;;;;;14.95;41.89;100382.69;5050954;28;20077;-76
2022/04/22 10:19:51;;;;;;;29.75;18.92;;;;;;;14.47;42.93;100386.00;5050534;28;20130;-76
2022/04/22 10:22:19;;;;;;;36.80;20.02;;;;;;;14.28;43.51;100386.66;5045953;28;20069;-76
2022/04/22 10:24:46;;;;;;;31.80;19.17;;;;;;;13.73;44.61;100388.09;5061548;28;20052;-77
2022/04/22 10:27:14;;;;;;;30.98;20.27;;;;;;;13.55;45.51;100385.81;5051606;28;20041;-77
2022/04/22 10:29:42;;;;;;;26.98;19.08;;;;;;;13.30;45.79;100383.41;5047482;28;20212;-75
2022/04/22 10:32:11;;;;;;;32.55;20.17;;;;;;;13.42;45.50;100378.38;5050512;28;20044;-76
2022/04/22 10:34:39;;;;;;;31.55;18.90;;;;;;;13.54;45.32;100378.75;5050372;28;20393;-75
2022/04/22 10:37:20;;;;;;;32.13;19.48;;;;;;;13.30;46.22;100375.31;5051624;28;20045;-76
2022/04/22 10:39:52;;;;;;;30.48;18.60;;;;;;;13.41;46.19;100375.88;5050654;28;20071;-76
2022/04/22 10:42:32;;;;;;;38.63;19.95;;;;;;;13.01;47.45;100369.97;5050558;28;20143;-75
2022/04/22 10:47:47;;;;;;;33.13;20.13;;;;;;;13.50;46.58;100372.06;5051660;28;20462;-76
2022/04/22 10:50:38;;;;;;;34.25;20.00;;;;;;;13.19;47.45;100374.97;5057026;28;20473;-75
2022/04/22 10:53:23;;;;;;;33.30;21.90;;;;;;;12.59;49.17;100368.63;5055725;28;20111;-74
2022/04/22 10:55:49;;;;;;;29.95;21.33;;;;;;;13.28;47.40;100390.00;5056570;28;20076;-75
2022/04/22 10:58:35;;;;;;;30.40;21.65;;;;;;;13.10;47.88;100375.03;5055180;28;20049;-75
2022/04/22 11:01:03;;;;;;;31.15;21.45;;;;;;;13.38;47.62;100371.69;5056122;28;20076;-75
2022/04/22 11:03:37;;;;;;;32.58;22.40;;;;;;;13.92;46.67;100373.22;5055528;28;20041;-75
2022/04/22 11:06:07;;;;;;;33.40;22.63;;;;;;;13.53;48.08;100377.09;5054798;28;20064;-75
2022/04/22 11:08:38;;;;;;;37.03;22.75;;;;;;;13.24;48.42;100369.84;5068937;22;20398;-74
2022/04/22 11:11:10;;;;;;;33.85;22.98;;;;;;;13.03;48.74;100371.41;5011640;28;20050;-74
2022/04/22 11:13:38;;;;;;;36.05;24.30;;;;;;;13.23;48.60;100370.88;5011216;28;20142;-74
2022/04/22 11:16:15;;;;;;;36.20;23.30;;;;;;;13.61;47.62;100385.06;5011047;28;20046;-74
2022/04/22 11:18:44;;;;;;;31.95;23.13;;;;;;;13.00;49.24;100381.72;5011050;28;20042;-73
2022/04/22 11:21:30;;;;;;;33.50;23.55;;;;;;;13.74;47.39;100379.00;5012618;28;20045;-73
2022/04/22 11:23:57;;;;;;;39.78;25.35;;;;;;;13.27;48.79;100377.56;5010939;28;20069;-74
2022/04/22 11:26:25;;;;;;;38.75;25.30;;;;;;;13.42;48.41;100388.31;5011045;28;20451;-74
2022/04/22 11:28:51;;;;;;;43.75;26.20;;;;;;;13.45;48.53;100386.09;5012531;28;20537;-74
2022/04/22 11:31:24;;;;;;;49.25;26.55;;;;;;;14.37;46.13;100388.22;5013040;28;20065;-76
2022/04/22 11:34:03;;;;;;;38.33;25.70;;;;;;;14.05;46.77;100386.84;5015657;28;20117;-74
2022/04/22 11:36:30;;;;;;;51.35;28.23;;;;;;;14.53;45.59;100385.25;5015433;28;20069;-74
2022/04/22 11:38:56;;;;;;;39.92;26.23;;;;;;;14.06;46.77;100389.34;5014133;28;20482;-74
2022/04/22 11:41:23;;;;;;;43.22;26.45;;;;;;;14.19;46.47;100382.44;5015075;28;20133;-74
2022/04/22 11:43:50;;;;;;;38.90;26.88;;;;;;;13.99;46.76;100384.91;5014641;28;20486;-74
2022/04/22 11:46:18;;;;;;;42.47;26.98;;;;;;;13.78;47.55;100389.25;5011726;28;20053;-74
2022/04/22 11:48:49;;;;;;;43.10;27.27;;;;;;;14.13;46.71;100388.59;5012791;28;20076;-74
2022/04/22 11:51:19;;;;;;;47.15;26.75;;;;;;;14.68;45.31;100387.03;4994980;28;20058;-74
2022/04/22 11:53:51;;;;;;;43.65;27.63;;;;;;;13.82;47.12;100377.03;4996857;28;20121;-74
2022/04/22 11:56:20;;;;;;;45.28;26.70;;;;;;;13.93;46.71;100383.81;4990081;28;20506;-74
2022/04/22 11:58:52;;;;;;;41.97;27.45;;;;;;;14.01;46.50;100389.09;4996528;28;20145;-75
2022/04/22 12:06:59;;;;;;;44.75;28.55;;;;;;;14.17;46.54;100404.19;4994578;28;20081;-75
2022/04/22 12:09:25;;;;;;;38.50;28.65;;;;;;;13.98;46.25;100396.72;4994888;28;20077;-75
2022/04/22 12:11:52;;;;;;;43.00;29.27;;;;;;;13.96;46.47;100390.69;4995990;28;20042;-75
2022/04/22 12:14:26;;;;;;;41.70;29.02;;;;;;;14.04;46.41;100395.94;4994868;28;20487;-75
2022/04/22 12:17:00;;;;;;;40.38;28.40;;;;;;;14.30;45.91;100398.09;4990019;28;20479;-75
2022/04/22 12:19:27;;;;;;;45.17;29.35;;;;;;;14.69;45.06;100400.31;4993921;28;20074;-76
2022/04/22 12:21:55;;;;;;;49.80;31.02;;;;;;;13.95;47.19;100399.81;4989858;28;20066;-75
2022/04/22 12:24:21;;;;;;;44.55;30.52;;;;;;;14.45;46.47;100398.84;4995573;28;20466;-75
2022/04/22 12:26:50;;;;;;;45.08;31.52;;;;;;;14.81;45.83;100392.56;4994448;28;20471;-75
2022/04/22 12:29:21;;;;;;;47.33;32.78;;;;;;;14.00;47.24;100391.97;4994797;28;20152;-76
2022/04/22 12:31:55;;;;;;;50.22;31.08;;;;;;;13.79;47.84;100384.69;4993653;28;20402;-76